Alba, MI

5:36 PM EDT on August 22, 2014 (GMT -0400)
Frank From | Change Station
CLOSE
Current Station
Personal Weather Station
Location: Mancelona, MI
Elevation: 1095 ft
Nearby Weather Stations

Elev 1095 ft 44.90 °N, 85.07 °W | Updated 12 seconds ago

Overcast
Overcast
77.2 °F
Feels Like 79 °F
N
0.0
Wind Variable Wind from North
Gusts 5.0 mph

Today
High -- | Low -- °F
--% Chance of Precip.
Yesterday
High -- | Low -- °F
Precip. -- in
6:49 AM 8:34 PM
Waning Crescent, 6% visible
Pressure 30.01 in
Visibility 10.0 miles
Clouds Mostly Cloudy 3000 ft
Overcast 4400 ft
Heat Index 79 °F
Dew Point 69 °F
Humidity 75%
Rainfall 0.00 in
Snow Depth Not available.
UV 2 out of 12
Pollen 6.00 out of 12
Ozone Good
PM2.5 Good
Flu Activity Not available.
SPECI KGLR 222045Z AUTO 12004KT 10SM BKN030 OVC044 24/17 A3001 RMK AO2 T02440172

More Conditions Fewer Conditions

Pressure 30.01 in
Visibility 10.0 miles
Clouds Mostly Cloudy 3000 ft
Overcast 4400 ft
Heat Index 79 °F
Dew Point 69 °F
Humidity 75%
Rainfall 0.00 in
Snow Depth Not available.
UV 2 out of 12
Pollen 6.00 out of 12
Ozone Good
PM2.5 Good
Flu Activity Not available.
SPECI KGLR 222045Z AUTO 12004KT 10SM BKN030 OVC044 24/17 A3001 RMK AO2 T02440172

More Conditions Fewer Conditions

Nowcast | as of 5:00 PM EDT on August 22, 2014

At 6 PM...mostly cloudy. Slight chance of thunderstorms. Temperature 76. Light winds. At 8 PM...mostly cloudy. Slight chance of thunderstorms. Temperature 74. Light winds. At 10 PM...partly cloudy. Temperature 68. Light winds. At 12 am...partly cloudy. Temperature 65. Light winds.

×

10-Day Weather Forecast

Almanac

Astronomy

Aug. 22, 2014 Rise Set
Actual Time 6:49 AM EDT 8:34 PM EDT
Civil Twilight 6:18 AM EDT 9:05 PM EDT
Nautical Twilight 5:40 AM EDT 9:43 PM EDT
Astronomical Twilight 4:59 AM EDT 10:24 PM EDT
Moon 4:08 AM EDT 6:44 PM EDT
Length of Visible Light 14h 46m
Length of Day
13h 44m
Tomorrow will be 2m 54s shorter.
Waning Crescent, 6% of the Moon is Illuminated
Today
Waning Crescent
Aug 25
New
Sep 2
First Quarter
Sep 8
Full
Sep 15
Last Quarter

Today's Extremes

State Highs State Lows

Community

WunderPhotos

Upload Photos

1,746,259 photos uploaded!

Nearby

Air Quality

  Air Quality AQ Index Pollutant
Yesterday Good
OZONE
Yesterday Good
PM2.5
Current Good
PM2.5
Current Good
OZONE
Friday Moderate
PM2.5
Friday Good
OZONE
Saturday Moderate
PM2.5
Saturday Good
OZONE
Sunday Moderate
PM2.5
Sunday Good
OZONE

Snow Depth

Station Depth Elevation
No new snow has been reported.

Earthquake Activity

City Distance Mag. Time & Date
No recent earthquake activity has been reported nearby.
Minimum magnitude displayed is 2.5.

Coastal Water Temperatures

Place Temperature
Mackinaw City, MI 66.9 °F
Port Inland, MI 62.1 °F

Nearby Weather Stations